sensor_id;sensor_type;location;lat;lon;timestamp;temperature;humidity
8043;DHT22;4064;48.132;11.366;2024-01-30T00:01:53;-0.80;99.90
8043;DHT22;4064;48.132;11.366;2024-01-30T00:04:19;-0.70;99.90
8043;DHT22;4064;48.132;11.366;2024-01-30T00:06:45;-0.80;99.90
8043;DHT22;4064;48.132;11.366;2024-01-30T00:09:11;-0.80;99.90
8043;DHT22;4064;48.132;11.366;2024-01-30T00:11:37;-0.90;99.90
8043;DHT22;4064;48.132;11.366;2024-01-30T00:14:03;-0.90;99.90
8043;DHT22;4064;48.132;11.366;2024-01-30T00:16:29;-0.90;99.90
8043;DHT22;4064;48.132;11.366;2024-01-30T00:18:55;-0.80;99.90
8043;DHT22;4064;48.132;11.366;2024-01-30T00:21:21;-0.70;99.90
8043;DHT22;4064;48.132;11.366;2024-01-30T00:23:47;-0.80;99.90
8043;DHT22;4064;48.132;11.366;2024-01-30T00:26:13;-0.70;99.90
8043;DHT22;4064;48.132;11.366;2024-01-30T00:28:41;-0.80;99.90
8043;DHT22;4064;48.132;11.366;2024-01-30T00:31:06;-0.80;99.90
8043;DHT22;4064;48.132;11.366;2024-01-30T00:33:32;-0.80;99.90
8043;DHT22;4064;48.132;11.366;2024-01-30T00:35:58;-0.80;99.90
8043;DHT22;4064;48.132;11.366;2024-01-30T00:38:24;-0.90;99.90
8043;DHT22;4064;48.132;11.366;2024-01-30T00:40:49;-0.90;99.90
8043;DHT22;4064;48.132;11.366;2024-01-30T00:43:15;-1.00;99.90
8043;DHT22;4064;48.132;11.366;2024-01-30T00:45:43;-1.00;99.90
8043;DHT22;4064;48.132;11.366;2024-01-30T00:48:09;-0.90;99.90
8043;DHT22;4064;48.132;11.366;2024-01-30T00:50:34;-0.90;99.90
8043;DHT22;4064;48.132;11.366;2024-01-30T00:53:00;-1.00;99.90
8043;DHT22;4064;48.132;11.366;2024-01-30T00:55:25;-1.00;99.90
8043;DHT22;4064;48.132;11.366;2024-01-30T00:57:51;-1.00;99.90
8043;DHT22;4064;48.132;11.366;2024-01-30T01:00:17;-1.00;99.90
8043;DHT22;4064;48.132;11.366;2024-01-30T01:02:43;-1.10;99.90
8043;DHT22;4064;48.132;11.366;2024-01-30T01:05:09;-1.10;99.90
8043;DHT22;4064;48.132;11.366;2024-01-30T01:07:35;-1.20;99.90
8043;DHT22;4064;48.132;11.366;2024-01-30T01:10:01;-1.20;99.90
8043;DHT22;4064;48.132;11.366;2024-01-30T01:12:26;-1.20;99.90
8043;DHT22;4064;48.132;11.366;2024-01-30T01:14:52;-1.20;99.90
8043;DHT22;4064;48.132;11.366;2024-01-30T01:17:18;-1.20;99.90
8043;DHT22;4064;48.132;11.366;2024-01-30T01:19:44;-1.10;99.90
8043;DHT22;4064;48.132;11.366;2024-01-30T01:22:10;-1.10;99.90
8043;DHT22;4064;48.132;11.366;2024-01-30T01:24:36;-1.30;99.90
8043;DHT22;4064;48.132;11.366;2024-01-30T01:27:02;-1.10;99.90
8043;DHT22;4064;48.132;11.366;2024-01-30T01:29:27;-1.30;99.90
8043;DHT22;4064;48.132;11.366;2024-01-30T01:31:56;-1.40;99.90
8043;DHT22;4064;48.132;11.366;2024-01-30T01:34:22;-1.40;99.90
8043;DHT22;4064;48.132;11.366;2024-01-30T01:36:49;-1.30;99.90
8043;DHT22;4064;48.132;11.366;2024-01-30T01:39:15;-1.30;99.90
8043;DHT22;4064;48.132;11.366;2024-01-30T01:41:41;-1.30;99.90
8043;DHT22;4064;48.132;11.366;2024-01-30T01:44:07;-1.20;99.90
8043;DHT22;4064;48.132;11.366;2024-01-30T01:46:34;-1.10;99.90
8043;DHT22;4064;48.132;11.366;2024-01-30T01:49:02;-1.10;99.90
8043;DHT22;4064;48.132;11.366;2024-01-30T01:51:31;-1.00;99.90
8043;DHT22;4064;48.132;11.366;2024-01-30T01:54:00;-1.00;99.90
8043;DHT22;4064;48.132;11.366;2024-01-30T01:56:27;-1.10;99.90
8043;DHT22;4064;48.132;11.366;2024-01-30T01:58:55;-1.20;99.90
8043;DHT22;4064;48.132;11.366;2024-01-30T02:01:23;-1.10;99.90
8043;DHT22;4064;48.132;11.366;2024-01-30T02:03:49;-1.20;99.90
8043;DHT22;4064;48.132;11.366;2024-01-30T02:06:15;-1.10;99.90
8043;DHT22;4064;48.132;11.366;2024-01-30T02:08:41;-1.00;99.90
8043;DHT22;4064;48.132;11.366;2024-01-30T02:11:08;-1.00;99.90
8043;DHT22;4064;48.132;11.366;2024-01-30T02:13:34;-0.90;99.90
8043;DHT22;4064;48.132;11.366;2024-01-30T02:16:00;-0.90;99.90
8043;DHT22;4064;48.132;11.366;2024-01-30T02:18:26;-0.90;99.90
8043;DHT22;4064;48.132;11.366;2024-01-30T02:20:54;-1.10;99.90
8043;DHT22;4064;48.132;11.366;2024-01-30T02:23:23;-1.00;99.90
8043;DHT22;4064;48.132;11.366;2024-01-30T02:25:50;-0.80;99.90
8043;DHT22;4064;48.132;11.366;2024-01-30T02:28:18;-0.80;99.90
8043;DHT22;4064;48.132;11.366;2024-01-30T02:30:45;-0.80;99.90
8043;DHT22;4064;48.132;11.366;2024-01-30T02:33:11;-0.70;99.90
8043;DHT22;4064;48.132;11.366;2024-01-30T02:35:37;-0.70;99.90
8043;DHT22;4064;48.132;11.366;2024-01-30T02:38:03;-0.70;99.90
8043;DHT22;4064;48.132;11.366;2024-01-30T02:40:29;-0.60;99.90
8043;DHT22;4064;48.132;11.366;2024-01-30T02:42:57;-0.60;99.90
8043;DHT22;4064;48.132;11.366;2024-01-30T02:45:23;-0.70;99.90
8043;DHT22;4064;48.132;11.366;2024-01-30T02:47:48;-0.80;99.90
8043;DHT22;4064;48.132;11.366;2024-01-30T02:50:14;-0.60;99.90
8043;DHT22;4064;48.132;11.366;2024-01-30T02:52:42;-0.60;99.90
8043;DHT22;4064;48.132;11.366;2024-01-30T02:55:09;-0.70;99.90
8043;DHT22;4064;48.132;11.366;2024-01-30T02:57:35;-0.60;99.90
8043;DHT22;4064;48.132;11.366;2024-01-30T03:00:01;-0.60;99.90
8043;DHT22;4064;48.132;11.366;2024-01-30T03:02:27;-0.60;99.90
8043;DHT22;4064;48.132;11.366;2024-01-30T03:04:52;-0.60;99.90
8043;DHT22;4064;48.132;11.366;2024-01-30T03:07:18;-0.60;99.90
8043;DHT22;4064;48.132;11.366;2024-01-30T03:09:44;-0.50;99.90
8043;DHT22;4064;48.132;11.366;2024-01-30T03:12:10;-0.50;99.90
8043;DHT22;4064;48.132;11.366;2024-01-30T03:14:35;-0.50;99.90
8043;DHT22;4064;48.132;11.366;2024-01-30T03:17:01;-0.40;99.90
8043;DHT22;4064;48.132;11.366;2024-01-30T03:19:28;-0.40;99.90
8043;DHT22;4064;48.132;11.366;2024-01-30T03:21:53;-0.40;99.90
8043;DHT22;4064;48.132;11.366;2024-01-30T03:24:19;-0.50;99.90
8043;DHT22;4064;48.132;11.366;2024-01-30T03:26:45;-0.50;99.90
8043;DHT22;4064;48.132;11.366;2024-01-30T03:29:11;-0.50;99.90
8043;DHT22;4064;48.132;11.366;2024-01-30T03:31:36;-0.50;99.90
8043;DHT22;4064;48.132;11.366;2024-01-30T03:34:02;-0.50;99.90
8043;DHT22;4064;48.132;11.366;2024-01-30T03:36:28;-0.60;99.90
8043;DHT22;4064;48.132;11.366;2024-01-30T03:38:54;-0.60;99.90
8043;DHT22;4064;48.132;11.366;2024-01-30T03:41:20;-0.50;99.90
8043;DHT22;4064;48.132;11.366;2024-01-30T03:43:46;-0.50;99.90
8043;DHT22;4064;48.132;11.366;2024-01-30T03:46:12;-0.50;99.90
8043;DHT22;4064;48.132;11.366;2024-01-30T03:48:38;-0.40;99.90
8043;DHT22;4064;48.132;11.366;2024-01-30T03:51:05;-0.50;99.90
8043;DHT22;4064;48.132;11.366;2024-01-30T03:53:30;-0.50;99.90
8043;DHT22;4064;48.132;11.366;2024-01-30T03:55:56;-0.50;99.90
8043;DHT22;4064;48.132;11.366;2024-01-30T03:58:22;-0.50;99.90
8043;DHT22;4064;48.132;11.366;2024-01-30T04:00:48;-0.50;99.90
8043;DHT22;4064;48.132;11.366;2024-01-30T04:03:17;-0.60;99.90
8043;DHT22;4064;48.132;11.366;2024-01-30T04:05:43;-0.50;99.90
8043;DHT22;4064;48.132;11.366;2024-01-30T04:08:09;-0.60;99.90
8043;DHT22;4064;48.132;11.366;2024-01-30T04:10:35;-0.60;99.90
8043;DHT22;4064;48.132;11.366;2024-01-30T04:13:01;-0.60;99.90
8043;DHT22;4064;48.132;11.366;2024-01-30T04:15:27;-0.50;99.90
8043;DHT22;4064;48.132;11.366;2024-01-30T04:17:53;-0.50;99.90
8043;DHT22;4064;48.132;11.366;2024-01-30T04:20:19;-0.50;99.90
8043;DHT22;4064;48.132;11.366;2024-01-30T04:22:45;-0.60;99.90
8043;DHT22;4064;48.132;11.366;2024-01-30T04:25:12;-0.60;99.90
8043;DHT22;4064;48.132;11.366;2024-01-30T04:27:38;-0.50;99.90
8043;DHT22;4064;48.132;11.366;2024-01-30T04:30:04;-0.60;99.90
8043;DHT22;4064;48.132;11.366;2024-01-30T04:32:31;-0.50;99.90
8043;DHT22;4064;48.132;11.366;2024-01-30T04:34:57;-0.40;99.90
8043;DHT22;4064;48.132;11.366;2024-01-30T04:37:23;-0.40;99.90
8043;DHT22;4064;48.132;11.366;2024-01-30T04:39:48;-0.30;99.90
8043;DHT22;4064;48.132;11.366;2024-01-30T04:42:14;-0.30;99.90
8043;DHT22;4064;48.132;11.366;2024-01-30T04:44:40;-0.30;99.90
8043;DHT22;4064;48.132;11.366;2024-01-30T04:47:05;-0.40;99.90
8043;DHT22;4064;48.132;11.366;2024-01-30T04:49:34;-0.40;99.90
8043;DHT22;4064;48.132;11.366;2024-01-30T04:52:00;-0.40;99.90
8043;DHT22;4064;48.132;11.366;2024-01-30T04:54:26;-0.40;99.90
8043;DHT22;4064;48.132;11.366;2024-01-30T04:56:51;-0.40;99.90
8043;DHT22;4064;48.132;11.366;2024-01-30T04:59:17;-0.30;99.90
8043;DHT22;4064;48.132;11.366;2024-01-30T05:01:43;-0.30;99.90
8043;DHT22;4064;48.132;11.366;2024-01-30T05:04:09;-0.20;99.90
8043;DHT22;4064;48.132;11.366;2024-01-30T05:06:35;-0.10;99.90
8043;DHT22;4064;48.132;11.366;2024-01-30T05:09:01;-0.20;99.90
8043;DHT22;4064;48.132;11.366;2024-01-30T05:11:26;-0.20;99.90
8043;DHT22;4064;48.132;11.366;2024-01-30T05:13:52;-0.20;99.90
8043;DHT22;4064;48.132;11.366;2024-01-30T05:16:18;-0.30;99.90
8043;DHT22;4064;48.132;11.366;2024-01-30T05:18:43;-0.40;99.90
8043;DHT22;4064;48.132;11.366;2024-01-30T05:21:10;-0.40;99.90
8043;DHT22;4064;48.132;11.366;2024-01-30T05:23:36;-0.50;99.90
8043;DHT22;4064;48.132;11.366;2024-01-30T05:26:02;-0.50;99.90
8043;DHT22;4064;48.132;11.366;2024-01-30T05:28:31;-0.50;99.90
8043;DHT22;4064;48.132;11.366;2024-01-30T05:30:57;-0.40;99.90
8043;DHT22;4064;48.132;11.366;2024-01-30T05:33:23;-0.40;99.90
8043;DHT22;4064;48.132;11.366;2024-01-30T05:35:48;-0.50;99.90
8043;DHT22;4064;48.132;11.366;2024-01-30T05:38:15;-0.40;99.90
8043;DHT22;4064;48.132;11.366;2024-01-30T05:40:41;-0.40;99.90
8043;DHT22;4064;48.132;11.366;2024-01-30T05:43:07;-0.60;99.90
8043;DHT22;4064;48.132;11.366;2024-01-30T05:45:33;-0.70;99.90
8043;DHT22;4064;48.132;11.366;2024-01-30T05:48:00;-0.50;99.90
8043;DHT22;4064;48.132;11.366;2024-01-30T05:50:26;-0.50;99.90
8043;DHT22;4064;48.132;11.366;2024-01-30T05:52:52;-0.50;99.90
8043;DHT22;4064;48.132;11.366;2024-01-30T05:55:18;-0.50;99.90
8043;DHT22;4064;48.132;11.366;2024-01-30T05:57:44;-0.60;99.90
8043;DHT22;4064;48.132;11.366;2024-01-30T06:00:10;-0.60;99.90
8043;DHT22;4064;48.132;11.366;2024-01-30T06:02:36;-0.60;99.90
8043;DHT22;4064;48.132;11.366;2024-01-30T06:05:02;-0.50;99.90
8043;DHT22;4064;48.132;11.366;2024-01-30T06:07:27;-0.40;99.90
8043;DHT22;4064;48.132;11.366;2024-01-30T06:09:53;-0.50;99.90
8043;DHT22;4064;48.132;11.366;2024-01-30T06:12:19;-0.50;99.90
8043;DHT22;4064;48.132;11.366;2024-01-30T06:14:44;-0.50;99.90
8043;DHT22;4064;48.132;11.366;2024-01-30T06:17:10;-0.50;99.90
8043;DHT22;4064;48.132;11.366;2024-01-30T06:19:37;-0.60;99.90
8043;DHT22;4064;48.132;11.366;2024-01-30T06:22:04;-0.60;99.90
8043;DHT22;4064;48.132;11.366;2024-01-30T06:24:30;-0.50;99.90
8043;DHT22;4064;48.132;11.366;2024-01-30T06:26:55;-0.60;99.90
8043;DHT22;4064;48.132;11.366;2024-01-30T06:29:21;-0.60;99.90
8043;DHT22;4064;48.132;11.366;2024-01-30T06:31:47;-0.60;99.90
8043;DHT22;4064;48.132;11.366;2024-01-30T06:34:13;-0.70;99.90
8043;DHT22;4064;48.132;11.366;2024-01-30T06:36:39;-0.70;99.90
8043;DHT22;4064;48.132;11.366;2024-01-30T06:39:04;-0.60;99.90
8043;DHT22;4064;48.132;11.366;2024-01-30T06:41:31;-0.50;99.90
8043;DHT22;4064;48.132;11.366;2024-01-30T06:43:57;-0.50;99.90
8043;DHT22;4064;48.132;11.366;2024-01-30T06:46:22;-0.50;99.90
8043;DHT22;4064;48.132;11.366;2024-01-30T06:48:48;-0.50;99.90
8043;DHT22;4064;48.132;11.366;2024-01-30T06:51:14;-0.50;99.90
8043;DHT22;4064;48.132;11.366;2024-01-30T06:53:39;-0.50;99.90
8043;DHT22;4064;48.132;11.366;2024-01-30T06:56:05;-0.40;99.90
8043;DHT22;4064;48.132;11.366;2024-01-30T06:58:31;-0.30;99.90
8043;DHT22;4064;48.132;11.366;2024-01-30T07:00:58;-0.20;99.90
8043;DHT22;4064;48.132;11.366;2024-01-30T07:03:24;-0.20;99.90
8043;DHT22;4064;48.132;11.366;2024-01-30T07:05:50;-0.20;99.90
8043;DHT22;4064;48.132;11.366;2024-01-30T07:08:16;-0.20;99.90
8043;DHT22;4064;48.132;11.366;2024-01-30T07:10:44;-0.20;99.90
8043;DHT22;4064;48.132;11.366;2024-01-30T07:13:11;-0.20;99.90
8043;DHT22;4064;48.132;11.366;2024-01-30T07:15:36;-0.10;99.90
8043;DHT22;4064;48.132;11.366;2024-01-30T07:18:03;-0.10;99.90
8043;DHT22;4064;48.132;11.366;2024-01-30T07:20:30;-0.10;99.90
8043;DHT22;4064;48.132;11.366;2024-01-30T07:22:58;-0.20;99.90
8043;DHT22;4064;48.132;11.366;2024-01-30T07:25:24;-0.20;99.90
8043;DHT22;4064;48.132;11.366;2024-01-30T07:27:52;-0.10;99.90
8043;DHT22;4064;48.132;11.366;2024-01-30T07:30:19;-0.10;99.90
8043;DHT22;4064;48.132;11.366;2024-01-30T07:32:46;-0.10;99.90
8043;DHT22;4064;48.132;11.366;2024-01-30T07:35:13;-0.10;99.90
8043;DHT22;4064;48.132;11.366;2024-01-30T07:37:38;-0.10;99.90
8043;DHT22;4064;48.132;11.366;2024-01-30T07:40:05;-0.10;99.90
8043;DHT22;4064;48.132;11.366;2024-01-30T07:42:31;-0.10;99.90
8043;DHT22;4064;48.132;11.366;2024-01-30T07:44:57;-0.10;99.90
8043;DHT22;4064;48.132;11.366;2024-01-30T07:47:23;0.00;99.90
8043;DHT22;4064;48.132;11.366;2024-01-30T07:49:48;0.20;99.90
8043;DHT22;4064;48.132;11.366;2024-01-30T07:52:14;0.20;99.90
8043;DHT22;4064;48.132;11.366;2024-01-30T07:54:40;0.20;99.90
8043;DHT22;4064;48.132;11.366;2024-01-30T07:57:06;0.20;99.90
8043;DHT22;4064;48.132;11.366;2024-01-30T07:59:31;0.20;99.90
8043;DHT22;4064;48.132;11.366;2024-01-30T08:01:57;0.30;99.90
8043;DHT22;4064;48.132;11.366;2024-01-30T08:04:22;0.30;99.90
8043;DHT22;4064;48.132;11.366;2024-01-30T08:06:48;0.40;99.90
8043;DHT22;4064;48.132;11.366;2024-01-30T08:09:14;0.50;99.90
8043;DHT22;4064;48.132;11.366;2024-01-30T08:11:40;0.50;99.90
8043;DHT22;4064;48.132;11.366;2024-01-30T08:14:05;0.60;99.90
8043;DHT22;4064;48.132;11.366;2024-01-30T08:16:31;0.60;99.90
8043;DHT22;4064;48.132;11.366;2024-01-30T08:18:57;0.70;99.90
8043;DHT22;4064;48.132;11.366;2024-01-30T08:21:23;0.80;99.90
8043;DHT22;4064;48.132;11.366;2024-01-30T08:23:48;0.90;99.90
8043;DHT22;4064;48.132;11.366;2024-01-30T08:26:14;1.10;99.90
8043;DHT22;4064;48.132;11.366;2024-01-30T08:28:40;1.20;99.90
8043;DHT22;4064;48.132;11.366;2024-01-30T08:31:05;1.30;99.90
8043;DHT22;4064;48.132;11.366;2024-01-30T08:33:31;1.50;99.90
8043;DHT22;4064;48.132;11.366;2024-01-30T08:35:57;1.60;99.90
8043;DHT22;4064;48.132;11.366;2024-01-30T08:38:23;1.90;99.90
8043;DHT22;4064;48.132;11.366;2024-01-30T08:40:49;3.00;99.90
8043;DHT22;4064;48.132;11.366;2024-01-30T08:43:15;4.30;99.90
8043;DHT22;4064;48.132;11.366;2024-01-30T08:45:41;4.10;99.90
8043;DHT22;4064;48.132;11.366;2024-01-30T08:48:07;3.70;99.90
8043;DHT22;4064;48.132;11.366;2024-01-30T08:50:33;3.30;99.90
8043;DHT22;4064;48.132;11.366;2024-01-30T08:52:59;4.00;99.90
8043;DHT22;4064;48.132;11.366;2024-01-30T08:55:24;5.30;99.90
8043;DHT22;4064;48.132;11.366;2024-01-30T08:57:50;5.50;99.90
8043;DHT22;4064;48.132;11.366;2024-01-30T09:00:17;7.50;99.90
8043;DHT22;4064;48.132;11.366;2024-01-30T09:02:43;9.70;99.90
8043;DHT22;4064;48.132;11.366;2024-01-30T09:05:09;10.70;99.90
8043;DHT22;4064;48.132;11.366;2024-01-30T09:07:35;11.10;99.90
8043;DHT22;4064;48.132;11.366;2024-01-30T09:10:00;12.30;98.30
8043;DHT22;4064;48.132;11.366;2024-01-30T09:12:26;13.20;94.60
8043;DHT22;4064;48.132;11.366;2024-01-30T09:14:52;13.20;92.90
8043;DHT22;4064;48.132;11.366;2024-01-30T09:17:18;13.50;90.90
8043;DHT22;4064;48.132;11.366;2024-01-30T09:19:45;13.50;90.60
8043;DHT22;4064;48.132;11.366;2024-01-30T09:22:11;13.60;90.00
8043;DHT22;4064;48.132;11.366;2024-01-30T09:24:36;12.40;90.00
8043;DHT22;4064;48.132;11.366;2024-01-30T09:27:02;10.90;90.70
8043;DHT22;4064;48.132;11.366;2024-01-30T09:29:28;12.10;90.70
8043;DHT22;4064;48.132;11.366;2024-01-30T09:31:54;12.70;87.80
8043;DHT22;4064;48.132;11.366;2024-01-30T09:34:19;10.70;88.90
8043;DHT22;4064;48.132;11.366;2024-01-30T09:36:45;9.40;92.00
8043;DHT22;4064;48.132;11.366;2024-01-30T09:39:11;9.50;92.60
8043;DHT22;4064;48.132;11.366;2024-01-30T09:42:09;9.50;93.70
8043;DHT22;4064;48.132;11.366;2024-01-30T09:44:31;9.80;93.00
8043;DHT22;4064;48.132;11.366;2024-01-30T09:46:57;11.10;91.60
8043;DHT22;4064;48.132;11.366;2024-01-30T09:49:33;11.90;87.70
8043;DHT22;4064;48.132;11.366;2024-01-30T09:52:00;12.10;87.00
8043;DHT22;4064;48.132;11.366;2024-01-30T09:54:25;12.70;84.90
8043;DHT22;4064;48.132;11.366;2024-01-30T09:56:51;12.90;82.10
8043;DHT22;4064;48.132;11.366;2024-01-30T09:59:17;11.60;84.50
8043;DHT22;4064;48.132;11.366;2024-01-30T10:01:43;10.70;88.30
8043;DHT22;4064;48.132;11.366;2024-01-30T10:04:08;10.60;90.70
8043;DHT22;4064;48.132;11.366;2024-01-30T10:06:34;10.50;91.20
8043;DHT22;4064;48.132;11.366;2024-01-30T10:09:00;10.70;90.90
8043;DHT22;4064;48.132;11.366;2024-01-30T10:11:26;11.10;90.90
8043;DHT22;4064;48.132;11.366;2024-01-30T10:13:52;11.10;90.70
8043;DHT22;4064;48.132;11.366;2024-01-30T10:16:18;11.10;90.40
8043;DHT22;4064;48.132;11.366;2024-01-30T10:18:44;11.90;90.20
8043;DHT22;4064;48.132;11.366;2024-01-30T10:21:09;12.10;89.20
8043;DHT22;4064;48.132;11.366;2024-01-30T10:23:36;11.50;86.90
8043;DHT22;4064;48.132;11.366;2024-01-30T10:26:06;12.00;90.30
8043;DHT22;4064;48.132;11.366;2024-01-30T10:28:32;12.00;89.40
8043;DHT22;4064;48.132;11.366;2024-01-30T10:31:01;12.20;89.80
8043;DHT22;4064;48.132;11.366;2024-01-30T10:33:29;12.20;88.90
8043;DHT22;4064;48.132;11.366;2024-01-30T10:36:01;12.00;88.50
8043;DHT22;4064;48.132;11.366;2024-01-30T10:38:31;12.10;88.60
8043;DHT22;4064;48.132;11.366;2024-01-30T10:41:01;12.00;87.60
8043;DHT22;4064;48.132;11.366;2024-01-30T10:43:32;12.10;89.20
8043;DHT22;4064;48.132;11.366;2024-01-30T10:46:19;12.50;89.00
8043;DHT22;4064;48.132;11.366;2024-01-30T10:48:51;12.50;88.90
8043;DHT22;4064;48.132;11.366;2024-01-30T10:51:22;12.50;86.30
8043;DHT22;4064;48.132;11.366;2024-01-30T10:53:49;12.70;81.30
8043;DHT22;4064;48.132;11.366;2024-01-30T10:56:16;12.90;81.90
8043;DHT22;4064;48.132;11.366;2024-01-30T10:58:42;12.80;77.50
8043;DHT22;4064;48.132;11.366;2024-01-30T11:07:52;13.10;77.80
8043;DHT22;4064;48.132;11.366;2024-01-30T11:10:19;13.00;76.10
8043;DHT22;4064;48.132;11.366;2024-01-30T11:12:46;12.90;76.30
8043;DHT22;4064;48.132;11.366;2024-01-30T11:15:18;12.90;78.60
8043;DHT22;4064;48.132;11.366;2024-01-30T11:17:51;13.00;80.30
8043;DHT22;4064;48.132;11.366;2024-01-30T11:22:48;13.50;76.50
8043;DHT22;4064;48.132;11.366;2024-01-30T11:25:15;13.60;77.80
8043;DHT22;4064;48.132;11.366;2024-01-30T11:27:43;13.70;80.60
8043;DHT22;4064;48.132;11.366;2024-01-30T11:30:09;13.90;78.70
8043;DHT22;4064;48.132;11.366;2024-01-30T11:32:35;14.10;74.00
8043;DHT22;4064;48.132;11.366;2024-01-30T11:35:03;14.00;73.50
8043;DHT22;4064;48.132;11.366;2024-01-30T11:37:31;14.00;72.60
8043;DHT22;4064;48.132;11.366;2024-01-30T11:39:57;13.90;74.50
8043;DHT22;4064;48.132;11.366;2024-01-30T11:42:24;14.00;73.40
8043;DHT22;4064;48.132;11.366;2024-01-30T11:44:52;14.20;73.30
8043;DHT22;4064;48.132;11.366;2024-01-30T11:47:18;14.20;71.30
8043;DHT22;4064;48.132;11.366;2024-01-30T11:49:44;14.20;75.40
8043;DHT22;4064;48.132;11.366;2024-01-30T11:52:10;14.20;72.80
8043;DHT22;4064;48.132;11.366;2024-01-30T11:54:39;14.20;71.00
8043;DHT22;4064;48.132;11.366;2024-01-30T11:57:05;14.20;72.60
8043;DHT22;4064;48.132;11.366;2024-01-30T11:59:31;14.30;70.40
8043;DHT22;4064;48.132;11.366;2024-01-30T12:01:56;14.40;67.80
8043;DHT22;4064;48.132;11.366;2024-01-30T12:04:22;14.40;67.10
8043;DHT22;4064;48.132;11.366;2024-01-30T12:06:52;14.50;67.40
8043;DHT22;4064;48.132;11.366;2024-01-30T12:09:18;14.70;70.70
8043;DHT22;4064;48.132;11.366;2024-01-30T12:11:48;15.00;67.20
8043;DHT22;4064;48.132;11.366;2024-01-30T12:14:16;15.20;65.30
8043;DHT22;4064;48.132;11.366;2024-01-30T12:16:42;15.10;63.30
8043;DHT22;4064;48.132;11.366;2024-01-30T12:19:08;15.20;62.10
8043;DHT22;4064;48.132;11.366;2024-01-30T12:21:34;15.00;63.50
8043;DHT22;4064;48.132;11.366;2024-01-30T12:24:00;14.80;65.00
8043;DHT22;4064;48.132;11.366;2024-01-30T12:26:26;14.90;62.90
8043;DHT22;4064;48.132;11.366;2024-01-30T12:28:55;14.70;61.80
8043;DHT22;4064;48.132;11.366;2024-01-30T12:31:31;14.80;60.40
8043;DHT22;4064;48.132;11.366;2024-01-30T12:33:59;14.50;61.70
8043;DHT22;4064;48.132;11.366;2024-01-30T12:36:25;14.30;62.80
8043;DHT22;4064;48.132;11.366;2024-01-30T12:38:51;14.50;60.10
8043;DHT22;4064;48.132;11.366;2024-01-30T12:41:17;14.50;62.30
8043;DHT22;4064;48.132;11.366;2024-01-30T12:43:44;14.30;62.40
8043;DHT22;4064;48.132;11.366;2024-01-30T12:46:10;14.20;62.10
8043;DHT22;4064;48.132;11.366;2024-01-30T12:48:35;14.20;59.60
8043;DHT22;4064;48.132;11.366;2024-01-30T12:51:01;14.10;63.00
8043;DHT22;4064;48.132;11.366;2024-01-30T12:53:27;14.10;63.90
8043;DHT22;4064;48.132;11.366;2024-01-30T12:55:53;14.30;61.90
8043;DHT22;4064;48.132;11.366;2024-01-30T12:58:20;14.40;62.50
8043;DHT22;4064;48.132;11.366;2024-01-30T13:00:46;14.70;61.30
8043;DHT22;4064;48.132;11.366;2024-01-30T13:03:12;14.80;61.90
8043;DHT22;4064;48.132;11.366;2024-01-30T13:05:38;14.80;60.60
8043;DHT22;4064;48.132;11.366;2024-01-30T13:08:04;14.60;63.50
8043;DHT22;4064;48.132;11.366;2024-01-30T13:10:30;14.50;61.30
8043;DHT22;4064;48.132;11.366;2024-01-30T13:12:55;14.40;64.10
8043;DHT22;4064;48.132;11.366;2024-01-30T13:15:21;14.30;62.80
8043;DHT22;4064;48.132;11.366;2024-01-30T13:17:48;14.20;64.00
8043;DHT22;4064;48.132;11.366;2024-01-30T13:20:15;14.10;64.40
8043;DHT22;4064;48.132;11.366;2024-01-30T13:22:44;14.10;64.60
8043;DHT22;4064;48.132;11.366;2024-01-30T13:25:10;14.30;63.50
8043;DHT22;4064;48.132;11.366;2024-01-30T13:27:37;14.20;65.40
8043;DHT22;4064;48.132;11.366;2024-01-30T13:30:03;14.00;65.60
8043;DHT22;4064;48.132;11.366;2024-01-30T13:32:29;13.90;65.00
8043;DHT22;4064;48.132;11.366;2024-01-30T13:34:55;13.80;67.00
8043;DHT22;4064;48.132;11.366;2024-01-30T13:37:21;13.70;63.90
8043;DHT22;4064;48.132;11.366;2024-01-30T13:39:47;13.60;64.30
8043;DHT22;4064;48.132;11.366;2024-01-30T13:42:12;13.50;64.40
8043;DHT22;4064;48.132;11.366;2024-01-30T13:44:38;13.40;65.70
8043;DHT22;4064;48.132;11.366;2024-01-30T13:47:04;13.40;65.90
8043;DHT22;4064;48.132;11.366;2024-01-30T13:49:30;13.30;66.40
8043;DHT22;4064;48.132;11.366;2024-01-30T13:51:56;13.10;64.70
8043;DHT22;4064;48.132;11.366;2024-01-30T13:54:21;13.10;66.20
8043;DHT22;4064;48.132;11.366;2024-01-30T13:56:47;13.00;66.10
8043;DHT22;4064;48.132;11.366;2024-01-30T13:59:13;12.80;66.70
8043;DHT22;4064;48.132;11.366;2024-01-30T14:01:39;12.80;66.00
8043;DHT22;4064;48.132;11.366;2024-01-30T14:04:05;12.70;66.30
8043;DHT22;4064;48.132;11.366;2024-01-30T14:06:31;12.60;67.80
8043;DHT22;4064;48.132;11.366;2024-01-30T14:08:56;12.50;66.90
8043;DHT22;4064;48.132;11.366;2024-01-30T14:11:23;12.40;68.50
8043;DHT22;4064;48.132;11.366;2024-01-30T14:13:50;12.30;68.90
8043;DHT22;4064;48.132;11.366;2024-01-30T14:16:16;12.20;69.60
8043;DHT22;4064;48.132;11.366;2024-01-30T14:18:42;12.20;69.80
8043;DHT22;4064;48.132;11.366;2024-01-30T14:21:08;12.20;69.30
8043;DHT22;4064;48.132;11.366;2024-01-30T14:23:34;12.10;69.10
8043;DHT22;4064;48.132;11.366;2024-01-30T14:25:59;12.10;70.30
8043;DHT22;4064;48.132;11.366;2024-01-30T14:28:25;12.00;71.00
8043;DHT22;4064;48.132;11.366;2024-01-30T14:30:51;11.90;70.60
8043;DHT22;4064;48.132;11.366;2024-01-30T14:33:16;11.90;69.80
8043;DHT22;4064;48.132;11.366;2024-01-30T14:35:42;11.70;71.10
8043;DHT22;4064;48.132;11.366;2024-01-30T14:38:08;11.60;72.00
8043;DHT22;4064;48.132;11.366;2024-01-30T14:40:35;11.60;73.10
8043;DHT22;4064;48.132;11.366;2024-01-30T14:43:01;11.60;73.00
8043;DHT22;4064;48.132;11.366;2024-01-30T14:45:26;11.50;73.90
8043;DHT22;4064;48.132;11.366;2024-01-30T14:47:52;11.50;76.10
8043;DHT22;4064;48.132;11.366;2024-01-30T14:50:18;11.50;74.60
8043;DHT22;4064;48.132;11.366;2024-01-30T14:52:44;11.50;73.70
8043;DHT22;4064;48.132;11.366;2024-01-30T14:55:10;11.40;75.90
8043;DHT22;4064;48.132;11.366;2024-01-30T14:57:35;11.30;76.20
8043;DHT22;4064;48.132;11.366;2024-01-30T15:00:04;11.30;77.60
8043;DHT22;4064;48.132;11.366;2024-01-30T15:02:30;11.20;76.70
8043;DHT22;4064;48.132;11.366;2024-01-30T15:04:55;11.10;79.50
8043;DHT22;4064;48.132;11.366;2024-01-30T15:07:21;11.00;77.80
8043;DHT22;4064;48.132;11.366;2024-01-30T15:09:47;10.90;75.40
8043;DHT22;4064;48.132;11.366;2024-01-30T15:12:13;10.80;81.00
8043;DHT22;4064;48.132;11.366;2024-01-30T15:14:38;10.70;80.20
8043;DHT22;4064;48.132;11.366;2024-01-30T15:17:04;10.60;80.70
8043;DHT22;4064;48.132;11.366;2024-01-30T15:19:29;10.50;79.50
8043;DHT22;4064;48.132;11.366;2024-01-30T15:21:55;10.50;81.50
8043;DHT22;4064;48.132;11.366;2024-01-30T15:24:21;10.40;80.30
8043;DHT22;4064;48.132;11.366;2024-01-30T15:26:50;10.30;80.90
8043;DHT22;4064;48.132;11.366;2024-01-30T15:29:16;10.10;82.30
8043;DHT22;4064;48.132;11.366;2024-01-30T15:31:42;10.00;82.80
8043;DHT22;4064;48.132;11.366;2024-01-30T15:34:08;9.90;82.90
8043;DHT22;4064;48.132;11.366;2024-01-30T15:36:33;9.70;84.00
8043;DHT22;4064;48.132;11.366;2024-01-30T15:38:59;9.60;84.10
8043;DHT22;4064;48.132;11.366;2024-01-30T15:41:25;9.40;87.20
8043;DHT22;4064;48.132;11.366;2024-01-30T15:43:50;9.20;87.00
8043;DHT22;4064;48.132;11.366;2024-01-30T15:46:16;9.10;84.50
8043;DHT22;4064;48.132;11.366;2024-01-30T15:48:42;9.00;86.70
8043;DHT22;4064;48.132;11.366;2024-01-30T15:51:08;9.00;85.60